createdAt,value
2023-03-27T00:01:09.009Z,96469.84
2023-03-27T00:03:35.566Z,96467.13
2023-03-27T00:06:02.024Z,96467.13
2023-03-27T00:08:28.426Z,96463.00
2023-03-27T00:10:54.980Z,96462.56
2023-03-27T00:13:21.507Z,96468.78
2023-03-27T00:15:47.874Z,96476.81
2023-03-27T00:18:14.265Z,96476.59
2023-03-27T00:20:40.733Z,96480.72
2023-03-27T00:23:07.132Z,96489.59
2023-03-27T00:25:33.504Z,96494.72
2023-03-27T00:27:59.861Z,96487.91
2023-03-27T00:30:26.290Z,96489.97
2023-03-27T00:32:52.682Z,96497.16
2023-03-27T00:35:20.160Z,96504.66
2023-03-27T00:37:46.569Z,96507.34
2023-03-27T00:40:12.957Z,96519.38
2023-03-27T00:42:39.331Z,96516.66
2023-03-27T00:45:05.761Z,96526.72
2023-03-27T00:47:32.113Z,96532.84
2023-03-27T00:49:58.493Z,96533.66
2023-03-27T00:52:24.972Z,96531.38
2023-03-27T00:54:51.425Z,96533.00
2023-03-27T00:57:17.856Z,96534.44
2023-03-27T00:59:44.262Z,96548.69
2023-03-27T01:02:10.648Z,96544.56
2023-03-27T01:04:41.018Z,96561.31
2023-03-27T01:07:07.469Z,96566.69
2023-03-27T01:09:33.864Z,96566.03
2023-03-27T01:12:01.391Z,96580.06
2023-03-27T01:14:27.783Z,96581.72
2023-03-27T01:16:54.210Z,96588.41
2023-03-27T01:19:20.577Z,96598.16
2023-03-27T01:21:46.989Z,96615.53
2023-03-27T01:24:15.674Z,96614.13
2023-03-27T01:26:42.101Z,96610.41
2023-03-27T01:29:08.488Z,96610.19
2023-03-27T01:31:34.892Z,96601.88
2023-03-27T01:34:01.358Z,96609.13
2023-03-27T01:36:27.757Z,96601.06
2023-03-27T01:38:58.524Z,96608.28
2023-03-27T01:41:24.885Z,96607.94
2023-03-27T01:43:51.281Z,96600.94
2023-03-27T01:46:17.719Z,96610.59
2023-03-27T01:48:44.083Z,96614.75
2023-03-27T01:51:10.468Z,96616.19
2023-03-27T01:53:36.912Z,96609.78
2023-03-27T01:56:03.345Z,96598.00
2023-03-27T01:58:29.795Z,96598.22
2023-03-27T02:00:56.248Z,96603.38
2023-03-27T02:03:22.648Z,96598.38
2023-03-27T02:05:49.096Z,96607.06
2023-03-27T02:08:15.533Z,96602.28
2023-03-27T02:10:41.935Z,96607.44
2023-03-27T02:13:08.351Z,96607.44
2023-03-27T02:15:34.701Z,96608.06
2023-03-27T02:18:01.146Z,96608.06
2023-03-27T02:20:27.547Z,96608.69
2023-03-27T02:22:53.900Z,96608.91
2023-03-27T02:25:20.339Z,96611.94
2023-03-27T02:27:46.746Z,96615.47
2023-03-27T02:30:13.184Z,96624.53
2023-03-27T02:32:39.788Z,96639.63
2023-03-27T02:35:06.211Z,96642.34
2023-03-27T02:37:33.085Z,96648.97
2023-03-27T02:39:59.691Z,96660.72
2023-03-27T02:42:26.048Z,96666.09
2023-03-27T02:44:52.447Z,96681.53
2023-03-27T02:47:18.832Z,96692.81
2023-03-27T02:49:45.207Z,96687.00
2023-03-27T02:52:11.705Z,96695.72
2023-03-27T02:54:38.117Z,96686.47
2023-03-27T02:57:04.674Z,96686.28
2023-03-27T02:59:31.061Z,96693.47
2023-03-27T03:01:57.458Z,96694.69
2023-03-27T03:04:23.854Z,96698.22
2023-03-27T03:06:50.303Z,96700.22
2023-03-27T03:09:16.696Z,96713.06
2023-03-27T03:11:43.075Z,96714.69
2023-03-27T03:14:09.496Z,96719.84
2023-03-27T03:16:35.939Z,96722.88
2023-03-27T03:19:02.295Z,96724.28
2023-03-27T03:21:28.689Z,96730.72
2023-03-27T03:23:57.516Z,96725.41
2023-03-27T03:26:25.039Z,96739.94
2023-03-27T03:28:59.801Z,96736.47
2023-03-27T03:31:27.622Z,96745.03
2023-03-27T03:33:55.385Z,96744.41
2023-03-27T03:36:21.731Z,96753.63
2023-03-27T03:38:51.021Z,96752.81
2023-03-27T03:41:17.498Z,96751.50
2023-03-27T03:43:43.854Z,96758.47
2023-03-27T03:46:10.379Z,96754.19
2023-03-27T03:48:36.794Z,96761.00
2023-03-27T03:51:03.196Z,96768.00
2023-03-27T03:53:29.533Z,96765.00
2023-03-27T03:55:55.920Z,96773.72
2023-03-27T03:58:34.779Z,96770.50
2023-03-27T04:01:01.613Z,96781.88
2023-03-27T04:03:28.100Z,96790.41
2023-03-27T04:05:54.570Z,96788.97
2023-03-27T04:08:20.914Z,96785.47
2023-03-27T04:10:47.634Z,96788.50
2023-03-27T04:13:13.973Z,96795.22
2023-03-27T04:15:40.425Z,96801.53
2023-03-27T04:18:06.909Z,96807.06
2023-03-27T04:20:33.425Z,96810.97
2023-03-27T04:22:59.886Z,96801.06
2023-03-27T04:25:26.257Z,96799.06
2023-03-27T04:27:52.648Z,96796.69
2023-03-27T04:30:19.097Z,96808.25
2023-03-27T04:32:45.592Z,96814.78
2023-03-27T04:35:12.013Z,96819.44
2023-03-27T04:37:38.410Z,96823.91
2023-03-27T04:40:04.847Z,96814.25
2023-03-27T04:42:31.312Z,96824.56
2023-03-27T04:44:57.712Z,96839.97
2023-03-27T04:47:24.229Z,96840.66
2023-03-27T04:49:50.712Z,96838.22
2023-03-27T04:52:17.136Z,96847.16
2023-03-27T04:54:43.555Z,96849.84
2023-03-27T04:57:10.076Z,96837.53
2023-03-27T04:59:36.549Z,96846.59
2023-03-27T05:02:05.719Z,96847.19
2023-03-27T05:04:33.038Z,96851.75
2023-03-27T05:06:59.419Z,96848.97
2023-03-27T05:09:25.897Z,96849.44
2023-03-27T05:11:52.271Z,96864.28
2023-03-27T05:14:18.664Z,96867.38
2023-03-27T05:16:45.251Z,96871.19
2023-03-27T05:19:11.720Z,96871.00
2023-03-27T05:21:38.274Z,96869.59
2023-03-27T05:24:04.701Z,96873.75
2023-03-27T05:26:31.106Z,96873.97
2023-03-27T05:28:57.593Z,96869.06
2023-03-27T05:31:23.999Z,96881.22
2023-03-27T05:33:50.353Z,96887.69
2023-03-27T05:36:16.735Z,96885.56
2023-03-27T05:38:43.092Z,96889.00
2023-03-27T05:41:09.489Z,96880.81
2023-03-27T05:43:35.906Z,96891.72
2023-03-27T05:46:02.341Z,96902.50
2023-03-27T05:48:28.755Z,96896.94
2023-03-27T05:50:55.306Z,96901.28
2023-03-27T05:53:27.935Z,96906.78
2023-03-27T05:56:03.080Z,96926.59
2023-03-27T05:58:29.922Z,96936.00
2023-03-27T06:00:56.463Z,96936.75
2023-03-27T06:03:23.112Z,96945.81
2023-03-27T06:05:51.123Z,96951.16
2023-03-27T06:08:17.521Z,96954.44
2023-03-27T06:10:43.896Z,96957.19
2023-03-27T06:13:10.281Z,96951.63
2023-03-27T06:15:36.718Z,96968.84
2023-03-27T06:18:03.266Z,96973.91
2023-03-27T06:20:29.933Z,96979.66
2023-03-27T06:22:56.396Z,96981.97
2023-03-27T06:25:22.860Z,96990.84
2023-03-27T06:27:50.623Z,96998.72
2023-03-27T06:30:17.497Z,97004.63
2023-03-27T06:32:43.973Z,97017.94
2023-03-27T06:35:10.494Z,97032.13
2023-03-27T06:37:36.929Z,97031.03
2023-03-27T06:40:03.323Z,97037.09
2023-03-27T06:42:29.754Z,97038.00
2023-03-27T06:44:56.184Z,97038.06
2023-03-27T06:47:22.611Z,97049.78
2023-03-27T06:49:49.048Z,97056.53
2023-03-27T06:52:15.465Z,97052.84
2023-03-27T06:54:42.798Z,97059.66
2023-03-27T06:57:09.286Z,97062.34
2023-03-27T06:59:35.712Z,97068.25
2023-03-27T07:02:02.251Z,97066.28
2023-03-27T07:04:28.740Z,97075.66
2023-03-27T07:06:55.129Z,97076.53
2023-03-27T07:09:21.573Z,97081.28
2023-03-27T07:11:47.947Z,97089.06
2023-03-27T07:14:14.320Z,97091.75
2023-03-27T07:16:40.684Z,97096.59
2023-03-27T07:19:07.089Z,97105.06
2023-03-27T07:21:33.492Z,97115.72
2023-03-27T07:24:00.080Z,97107.31
2023-03-27T07:26:26.455Z,97118.19
2023-03-27T07:28:52.810Z,97126.63
2023-03-27T07:31:35.033Z,97125.84
2023-03-27T07:34:05.791Z,97128.72
2023-03-27T07:36:32.192Z,97131.69
2023-03-27T07:38:58.621Z,97128.88
2023-03-27T07:41:25.067Z,97138.81
2023-03-27T07:43:51.497Z,97133.44
2023-03-27T07:46:20.358Z,97139.38
2023-03-27T07:48:46.780Z,97140.44
2023-03-27T07:51:14.376Z,97147.91
2023-03-27T07:53:40.888Z,97145.59
2023-03-27T07:56:07.225Z,97157.47
2023-03-27T07:58:33.681Z,97155.28
2023-03-27T08:01:00.068Z,97151.31
2023-03-27T08:03:26.612Z,97145.50
2023-03-27T08:05:53.032Z,97157.94
2023-03-27T08:08:25.353Z,97165.41
2023-03-27T08:10:51.780Z,97160.81
2023-03-27T08:13:23.250Z,97158.53
2023-03-27T08:15:49.671Z,97161.03
2023-03-27T08:20:58.414Z,97168.19
2023-03-27T08:23:27.252Z,97166.66
2023-03-27T08:25:54.168Z,97162.66
2023-03-27T08:28:22.567Z,97166.38
2023-03-27T08:30:49.044Z,97187.09
2023-03-27T08:33:15.416Z,97196.50
2023-03-27T08:35:42.849Z,97201.69
2023-03-27T08:38:19.983Z,97206.84
2023-03-27T08:40:52.266Z,97224.19
2023-03-27T08:43:18.650Z,97217.66
2023-03-27T08:45:44.990Z,97229.72
2023-03-27T08:48:14.488Z,97238.22
2023-03-27T08:50:40.911Z,97247.19
2023-03-27T08:53:07.303Z,97249.78
2023-03-27T08:55:33.753Z,97276.94
2023-03-27T08:58:00.131Z,97267.88
2023-03-27T09:00:26.575Z,97275.38
2023-03-27T09:02:53.192Z,97278.28
2023-03-27T09:05:19.838Z,97271.91
2023-03-27T09:07:46.206Z,97276.78
2023-03-27T09:10:12.571Z,97278.91
2023-03-27T09:12:39.043Z,97283.38
2023-03-27T09:15:05.663Z,97285.16
2023-03-27T09:17:32.077Z,97283.72
2023-03-27T09:19:58.437Z,97285.06
2023-03-27T09:22:24.770Z,97294.50
2023-03-27T09:24:51.102Z,97297.16
2023-03-27T09:27:17.494Z,97299.53
2023-03-27T09:29:43.816Z,97299.69
2023-03-27T09:32:10.226Z,97300.06
2023-03-27T09:34:36.589Z,97300.31
2023-03-27T09:37:02.988Z,97302.69
2023-03-27T09:39:29.387Z,97308.94
2023-03-27T09:41:55.814Z,97316.41
2023-03-27T09:44:22.184Z,97318.97
2023-03-27T09:46:48.582Z,97325.03
2023-03-27T09:49:15.026Z,97329.47
2023-03-27T09:51:41.410Z,97338.34
2023-03-27T09:54:07.782Z,97339.03
2023-03-27T09:56:34.184Z,97347.34
2023-03-27T09:59:00.668Z,97345.19
2023-03-27T10:01:27.118Z,97339.78
2023-03-27T10:03:53.638Z,97348.81
2023-03-27T10:06:20.168Z,97345.06
2023-03-27T10:08:46.565Z,97345.66
2023-03-27T10:11:13.040Z,97356.91
2023-03-27T10:13:39.421Z,97353.34
2023-03-27T10:16:05.848Z,97356.09
2023-03-27T10:18:32.372Z,97347.66
2023-03-27T10:20:59.108Z,97360.25
2023-03-27T10:23:25.701Z,97367.72
2023-03-27T10:25:52.260Z,97365.50
2023-03-27T10:28:18.649Z,97373.53
2023-03-27T10:30:45.032Z,97364.63
2023-03-27T10:33:11.523Z,97376.56
2023-03-27T10:35:38.029Z,97381.50
2023-03-27T10:38:04.545Z,97375.53
2023-03-27T10:40:30.921Z,97378.63
2023-03-27T10:42:57.288Z,97379.56
2023-03-27T10:45:26.489Z,97377.34
2023-03-27T10:47:52.948Z,97380.66
2023-03-27T10:50:19.477Z,97380.94
2023-03-27T10:52:45.893Z,97378.72
2023-03-27T10:55:12.277Z,97375.84
2023-03-27T10:57:38.690Z,97382.06
2023-03-27T11:00:06.094Z,97390.19
2023-03-27T11:02:32.535Z,97393.03
2023-03-27T11:04:59.075Z,97398.41
2023-03-27T11:07:25.485Z,97386.22
2023-03-27T11:09:54.074Z,97382.78
2023-03-27T11:12:20.508Z,97384.22
2023-03-27T11:14:46.920Z,97379.72
2023-03-27T11:17:13.310Z,97385.34
2023-03-27T11:19:47.538Z,97381.94
2023-03-27T11:27:53.481Z,97400.66
2023-03-27T11:30:19.968Z,97406.66
2023-03-27T11:32:48.537Z,97413.41
2023-03-27T11:35:22.554Z,97419.03
2023-03-27T11:37:49.046Z,97424.38
2023-03-27T11:40:15.577Z,97428.53
2023-03-27T11:45:32.498Z,97436.59
2023-03-27T11:47:59.043Z,97448.66
2023-03-27T11:50:26.478Z,97446.56
2023-03-27T11:52:53.189Z,97452.91
2023-03-27T11:55:19.653Z,97455.81
2023-03-27T11:57:46.348Z,97466.53
2023-03-27T12:00:13.233Z,97473.22
2023-03-27T12:02:42.228Z,97471.09
2023-03-27T12:05:14.013Z,97481.69
2023-03-27T12:07:44.241Z,97487.50
2023-03-27T12:10:14.221Z,97480.84
2023-03-27T12:12:40.679Z,97490.47
2023-03-27T12:15:07.193Z,97496.00
2023-03-27T12:17:33.758Z,97502.25
2023-03-27T12:20:03.059Z,97511.75
2023-03-27T12:22:29.510Z,97517.28
2023-03-27T12:24:59.681Z,97504.97
2023-03-27T12:27:26.604Z,97513.03
2023-03-27T12:29:53.077Z,97524.66
2023-03-27T12:32:19.537Z,97511.56
2023-03-27T12:34:46.058Z,97538.31
2023-03-27T12:37:13.803Z,97528.50
2023-03-27T12:39:40.233Z,97532.09
2023-03-27T12:42:06.646Z,97535.59
2023-03-27T12:44:33.093Z,97546.91
2023-03-27T12:47:12.271Z,97544.84
2023-03-27T12:49:46.879Z,97547.00
2023-03-27T12:52:15.116Z,97548.72
2023-03-27T12:54:42.809Z,97536.00
2023-03-27T12:57:10.499Z,97539.84
2023-03-27T12:59:48.338Z,97540.44
2023-03-27T13:02:15.434Z,97550.19
2023-03-27T13:04:42.115Z,97558.84
2023-03-27T13:07:08.637Z,97570.38
2023-03-27T13:09:40.168Z,97570.28
2023-03-27T13:12:06.734Z,97565.00
2023-03-27T13:14:35.351Z,97555.25
2023-03-27T13:17:08.542Z,97565.44
2023-03-27T13:19:35.117Z,97567.81
2023-03-27T13:22:15.306Z,97575.88
2023-03-27T13:24:41.770Z,97571.25
2023-03-27T13:27:09.262Z,97573.78
2023-03-27T13:29:37.958Z,97592.66
2023-03-27T13:32:04.494Z,97589.25
2023-03-27T13:34:30.996Z,97585.84
2023-03-27T13:37:06.020Z,97597.25
2023-03-27T13:39:33.385Z,97603.22
2023-03-27T13:42:05.230Z,97604.91
2023-03-27T13:44:31.755Z,97595.78
2023-03-27T13:46:58.333Z,97604.94
2023-03-27T13:49:24.944Z,97602.75
2023-03-27T13:51:53.943Z,97604.47
2023-03-27T13:54:21.225Z,97609.00
2023-03-27T13:56:47.809Z,97612.22
2023-03-27T13:59:14.358Z,97617.63
2023-03-27T14:01:45.376Z,97617.91
2023-03-27T14:04:11.877Z,97621.22
2023-03-27T14:06:38.396Z,97622.78
2023-03-27T14:09:07.071Z,97634.97
2023-03-27T14:11:37.332Z,97635.47
2023-03-27T14:14:04.367Z,97631.34
2023-03-27T14:16:30.917Z,97635.84
2023-03-27T14:18:57.404Z,97642.00
2023-03-27T14:21:35.809Z,97635.84
2023-03-27T14:24:05.200Z,97643.16
2023-03-27T14:26:31.626Z,97647.44
2023-03-27T14:28:58.061Z,97652.44
2023-03-27T14:31:25.830Z,97648.38
2023-03-27T14:33:54.464Z,97651.34
2023-03-27T14:36:20.918Z,97654.44
2023-03-27T14:38:47.313Z,97659.00
2023-03-27T14:41:14.121Z,97663.41
2023-03-27T14:43:40.602Z,97665.59
2023-03-27T14:46:07.122Z,97669.34
2023-03-27T14:48:33.623Z,97669.22
2023-03-27T14:51:00.147Z,97674.28
2023-03-27T14:53:32.059Z,97684.91
2023-03-27T14:56:03.510Z,97670.06
2023-03-27T14:58:30.171Z,97670.38
2023-03-27T15:00:56.598Z,97680.72
2023-03-27T15:03:23.269Z,97672.59
2023-03-27T15:05:49.833Z,97673.66
2023-03-27T15:08:16.253Z,97689.22
2023-03-27T15:10:42.784Z,97692.16
2023-03-27T15:13:09.334Z,97690.00
2023-03-27T15:15:35.794Z,97694.19
2023-03-27T15:18:02.277Z,97689.13
2023-03-27T15:20:28.768Z,97698.13
2023-03-27T15:22:55.274Z,97686.84
2023-03-27T15:25:21.757Z,97692.00
2023-03-27T15:27:48.140Z,97697.66
2023-03-27T15:30:14.724Z,97701.97
2023-03-27T15:32:53.627Z,97700.25
2023-03-27T15:35:20.171Z,97704.69
2023-03-27T15:37:46.683Z,97700.34
2023-03-27T15:40:13.203Z,97709.38
2023-03-27T15:42:39.825Z,97703.34
2023-03-27T15:45:06.263Z,97713.03
2023-03-27T15:47:32.729Z,97708.97
2023-03-27T15:50:08.250Z,97715.97
2023-03-27T15:52:34.638Z,97713.16
2023-03-27T15:55:03.915Z,97710.91
2023-03-27T15:57:30.432Z,97720.16
2023-03-27T15:59:56.862Z,97722.25
2023-03-27T16:02:23.411Z,97720.78
2023-03-27T16:04:49.989Z,97726.97
2023-03-27T16:07:16.395Z,97719.94
2023-03-27T16:09:42.864Z,97721.97
2023-03-27T16:12:09.463Z,97725.16
2023-03-27T16:14:35.936Z,97726.78
2023-03-27T16:17:02.396Z,97733.91
2023-03-27T16:19:28.852Z,97723.19
2023-03-27T16:21:55.368Z,97731.66
2023-03-27T16:24:21.869Z,97726.72
2023-03-27T16:26:48.567Z,97726.31
2023-03-27T16:29:15.088Z,97729.63
2023-03-27T16:31:41.597Z,97725.59
2023-03-27T16:34:08.120Z,97732.72
2023-03-27T16:36:34.535Z,97730.31
2023-03-27T16:39:01.085Z,97731.63
2023-03-27T16:41:27.495Z,97734.25
2023-03-27T16:43:54.092Z,97729.75
2023-03-27T16:46:23.238Z,97736.47
2023-03-27T16:48:50.163Z,97737.09
2023-03-27T16:51:37.217Z,97745.53
2023-03-27T16:54:03.687Z,97749.84
2023-03-27T16:56:30.160Z,97748.94
2023-03-27T16:58:56.573Z,97763.53
2023-03-27T17:01:23.114Z,97760.34
2023-03-27T17:03:49.694Z,97769.81
2023-03-27T17:06:16.143Z,97759.66
2023-03-27T17:08:42.590Z,97768.88
2023-03-27T17:11:09.090Z,97775.78
2023-03-27T17:13:35.632Z,97777.72
2023-03-27T17:16:02.153Z,97783.09
2023-03-27T17:18:28.525Z,97792.78
2023-03-27T17:20:54.964Z,97788.94
2023-03-27T17:23:21.438Z,97794.94
2023-03-27T17:25:47.812Z,97793.97
2023-03-27T17:28:14.194Z,97797.66
2023-03-27T17:30:44.786Z,97799.81
2023-03-27T17:33:33.096Z,97800.66
2023-03-27T17:38:39.860Z,97814.41
2023-03-27T17:41:09.278Z,97814.09
2023-03-27T17:43:35.681Z,97810.28
2023-03-27T17:46:02.423Z,97811.19
2023-03-27T17:48:29.063Z,97820.56
2023-03-27T17:51:08.311Z,97819.78
2023-03-27T17:53:37.142Z,97828.06
2023-03-27T17:56:03.841Z,97829.13
2023-03-27T17:58:30.379Z,97832.00
2023-03-27T18:00:56.859Z,97832.38
2023-03-27T18:03:23.480Z,97830.69
2023-03-27T18:05:50.114Z,97839.53
2023-03-27T18:08:18.457Z,97843.91
2023-03-27T18:10:45.071Z,97847.94
2023-03-27T18:16:04.273Z,97860.16
2023-03-27T18:18:32.306Z,97864.84
2023-03-27T18:21:01.444Z,97867.19
2023-03-27T18:23:28.004Z,97868.19
2023-03-27T18:25:54.671Z,97881.56
2023-03-27T18:28:21.244Z,97885.25
2023-03-27T18:30:51.771Z,97883.91
2023-03-27T18:33:20.735Z,97882.22
2023-03-27T18:35:47.307Z,97877.38
2023-03-27T18:38:15.951Z,97884.41
2023-03-27T18:40:42.385Z,97881.56
2023-03-27T18:43:08.943Z,97881.91
2023-03-27T18:45:35.428Z,97884.59
2023-03-27T18:48:02.014Z,97896.63
2023-03-27T18:50:28.551Z,97896.78
2023-03-27T18:52:54.936Z,97911.16
2023-03-27T18:55:21.308Z,97905.31
2023-03-27T18:57:47.894Z,97907.16
2023-03-27T19:00:14.459Z,97912.69
2023-03-27T19:02:41.106Z,97912.50
2023-03-27T19:05:07.680Z,97918.38
2023-03-27T19:07:34.103Z,97913.00
2023-03-27T19:10:00.474Z,97925.22
2023-03-27T19:12:26.866Z,97924.38
2023-03-27T19:14:53.256Z,97922.22
2023-03-27T19:17:19.655Z,97926.03
2023-03-27T19:19:46.597Z,97929.72
2023-03-27T19:22:13.219Z,97938.25
2023-03-27T19:24:43.244Z,97933.56
2023-03-27T19:27:24.011Z,97937.41
2023-03-27T19:29:54.227Z,97937.75
2023-03-27T19:35:01.242Z,97945.28
2023-03-27T19:37:35.187Z,97939.75
2023-03-27T19:40:01.705Z,97945.94
2023-03-27T19:45:08.820Z,97955.81
2023-03-27T19:47:46.543Z,97960.13
2023-03-27T19:50:13.005Z,97954.78
2023-03-27T19:52:39.498Z,97962.00
2023-03-27T19:55:06.095Z,97957.47
2023-03-27T19:57:32.620Z,97960.81
2023-03-27T19:59:59.080Z,97956.47
2023-03-27T20:02:25.758Z,97952.66
2023-03-27T20:04:52.177Z,97957.16
2023-03-27T20:07:18.674Z,97951.81
2023-03-27T20:09:45.118Z,97955.16
2023-03-27T20:12:13.631Z,97956.66
2023-03-27T20:14:40.044Z,97952.94
2023-03-27T20:17:12.236Z,97960.13
2023-03-27T20:19:52.929Z,97953.94
2023-03-27T20:22:19.464Z,97956.81
2023-03-27T20:24:48.294Z,97953.44
2023-03-27T20:27:14.703Z,97954.97
2023-03-27T20:29:41.039Z,97963.38
2023-03-27T20:32:08.801Z,97955.63
2023-03-27T20:34:40.153Z,97962.66
2023-03-27T20:37:06.654Z,97963.63
2023-03-27T20:39:38.059Z,97963.81
2023-03-27T20:42:05.450Z,97970.16
2023-03-27T20:44:31.887Z,97972.00
2023-03-27T20:47:07.247Z,97974.69
2023-03-27T20:49:41.134Z,97978.88
2023-03-27T20:52:08.204Z,97977.56
2023-03-27T20:54:37.298Z,97989.59
2023-03-27T20:57:03.774Z,97980.72
2023-03-27T20:59:30.213Z,97979.91
2023-03-27T21:01:56.584Z,97989.59
2023-03-27T21:04:22.996Z,97984.75
2023-03-27T21:06:49.360Z,97987.59
2023-03-27T21:09:15.703Z,97991.25
2023-03-27T21:11:42.115Z,97994.75
2023-03-27T21:14:08.521Z,97989.25
2023-03-27T21:16:34.979Z,97990.38
2023-03-27T21:19:01.477Z,97987.06
2023-03-27T21:21:27.878Z,97983.56
2023-03-27T21:23:54.331Z,97983.22
2023-03-27T21:26:22.555Z,97976.19
2023-03-27T21:28:48.947Z,97982.88
2023-03-27T21:31:27.364Z,97978.53
2023-03-27T21:33:53.763Z,97978.34
2023-03-27T21:36:20.195Z,97987.91
2023-03-27T21:38:49.526Z,97982.56
2023-03-27T21:41:15.950Z,97985.53
2023-03-27T21:43:42.392Z,97984.88
2023-03-27T21:46:08.803Z,97978.19
2023-03-27T21:48:35.264Z,97986.88
2023-03-27T21:51:01.715Z,97983.88
2023-03-27T21:53:28.522Z,97987.41
2023-03-27T21:55:59.445Z,97982.88
2023-03-27T21:58:26.120Z,97984.56
2023-03-27T22:00:52.649Z,97983.22
2023-03-27T22:03:22.226Z,97993.25
2023-03-27T22:06:01.166Z,97999.59
2023-03-27T22:08:35.208Z,98002.28
2023-03-27T22:11:01.670Z,98009.44
2023-03-27T22:13:28.137Z,98011.28
2023-03-27T22:15:54.645Z,98017.34
2023-03-27T22:18:35.118Z,98020.00
2023-03-27T22:21:01.699Z,98020.81
2023-03-27T22:23:28.233Z,98028.16
2023-03-27T22:25:54.718Z,98025.19
2023-03-27T22:28:21.457Z,98034.03
2023-03-27T22:30:47.972Z,98025.69
2023-03-27T22:33:14.454Z,98026.19
2023-03-27T22:35:40.934Z,98021.66
2023-03-27T22:38:07.381Z,98021.50
2023-03-27T22:40:33.818Z,98032.72
2023-03-27T22:43:00.311Z,98024.69
2023-03-27T22:45:29.536Z,98029.22
2023-03-27T22:47:56.108Z,98026.53
2023-03-27T22:50:22.621Z,98032.72
2023-03-27T22:52:49.097Z,98028.69
2023-03-27T22:55:15.624Z,98035.03
2023-03-27T22:57:42.088Z,98023.69
2023-03-27T23:00:08.528Z,98026.34
2023-03-27T23:02:35.096Z,98034.38
2023-03-27T23:05:01.636Z,98026.19
2023-03-27T23:07:28.137Z,98030.72
2023-03-27T23:09:54.645Z,98029.03
2023-03-27T23:12:21.154Z,98040.38
2023-03-27T23:14:47.651Z,98034.38
2023-03-27T23:17:14.108Z,98032.53
2023-03-27T23:19:40.588Z,98030.19
2023-03-27T23:22:17.132Z,98027.88
2023-03-27T23:24:43.503Z,98032.69
2023-03-27T23:27:09.973Z,98035.69
2023-03-27T23:29:36.466Z,98036.38
2023-03-27T23:32:04.361Z,98027.66
2023-03-27T23:34:30.848Z,98031.03
2023-03-27T23:36:58.493Z,98028.81
2023-03-27T23:39:25.232Z,98030.34
2023-03-27T23:41:51.620Z,98036.38
2023-03-27T23:44:17.976Z,98037.69
2023-03-27T23:46:44.323Z,98036.38
2023-03-27T23:49:10.715Z,98045.72
2023-03-27T23:51:37.101Z,98056.41
2023-03-27T23:54:03.473Z,98061.06
2023-03-27T23:56:29.927Z,98063.59
2023-03-27T23:58:56.295Z,98069.97
